Time;durP1;ratioP1;P1;durP2;ratioP2;P2;SDS_P1;SDS_P2;PMS_P1;PMS_P2;Temp;Humidity;BMP_temperature;BMP_pressure;BME280_temperature;BME280_humidity;BME280_pressure;Samples;Min_cycle;Max_cycle;Signal;HPM_P1;HPM_P2
2021/08/27 00:02:15;;;;;;;3.30;0.70;;;;;;;13.00;80.58;99636.19;116175;1201;23031;-60
2021/08/27 00:04:47;;;;;;;4.40;0.90;;;;;;;13.00;80.44;99634.80;116003;1201;22082;-60
2021/08/27 00:07:18;;;;;;;5.70;0.80;;;;;;;13.00;80.55;99645.27;116149;1201;22314;-60
2021/08/27 00:09:49;;;;;;;3.00;0.70;;;;;;;13.00;80.63;99647.81;116136;1201;22328;-60
2021/08/27 00:12:22;;;;;;;7.10;0.90;;;;;;;13.01;80.62;99649.19;116103;1201;22181;-60
2021/08/27 00:14:53;;;;;;;5.40;0.80;;;;;;;13.01;80.74;99650.05;116141;1201;22137;-60
2021/08/27 00:17:29;;;;;;;4.50;0.70;;;;;;;13.01;80.74;99651.17;116136;1201;22353;-60
2021/08/27 00:20:01;;;;;;;4.70;0.90;;;;;;;13.02;80.77;99655.02;115934;1202;22957;-60
2021/08/27 00:22:32;;;;;;;3.80;0.70;;;;;;;13.02;80.80;99656.86;116159;1201;22353;-61
2021/08/27 00:25:02;;;;;;;5.30;0.50;;;;;;;13.03;80.77;99661.86;116170;1201;22309;-60
2021/08/27 00:27:33;;;;;;;3.00;0.60;;;;;;;13.02;80.79;99655.29;116160;1201;22324;-60
2021/08/27 00:30:04;;;;;;;4.60;0.60;;;;;;;13.01;80.88;99652.23;116196;1201;22322;-61
2021/08/27 00:32:36;;;;;;;2.20;0.60;;;;;;;13.01;80.98;99657.28;116142;1201;22357;-60
2021/08/27 00:35:08;;;;;;;5.80;0.70;;;;;;;13.00;80.89;99655.04;116140;1201;22315;-60
2021/08/27 00:37:38;;;;;;;5.10;0.80;;;;;;;12.98;80.99;99653.77;116164;1201;22325;-60
2021/08/27 00:40:10;;;;;;;5.40;0.80;;;;;;;12.96;81.00;99651.68;116136;1201;22309;-60
2021/08/27 00:42:41;;;;;;;5.70;0.60;;;;;;;12.95;81.06;99651.07;116130;1201;22335;-60
2021/08/27 00:45:13;;;;;;;3.50;0.80;;;;;;;12.93;81.15;99653.92;116163;1201;22321;-61
2021/08/27 00:47:44;;;;;;;3.70;0.80;;;;;;;12.91;81.04;99658.15;115933;1201;22370;-60
2021/08/27 00:50:18;;;;;;;4.00;0.70;;;;;;;12.90;81.02;99654.27;116160;1201;22836;-60
2021/08/27 00:52:49;;;;;;;4.80;0.60;;;;;;;12.90;81.16;99654.23;116157;1201;22321;-60
2021/08/27 00:55:20;;;;;;;3.20;0.60;;;;;;;12.88;81.11;99655.30;116152;1201;22359;-60
2021/08/27 00:57:52;;;;;;;4.80;0.60;;;;;;;12.87;81.16;99654.21;116143;1201;22214;-60
2021/08/27 01:00:23;;;;;;;3.90;0.60;;;;;;;12.86;81.16;99654.37;116133;1201;23309;-60
2021/08/27 01:02:54;;;;;;;5.00;0.80;;;;;;;12.84;81.11;99660.08;116142;1201;22310;-60
2021/08/27 01:05:26;;;;;;;4.30;0.50;;;;;;;12.83;81.16;99658.95;116121;1201;22341;-60
2021/08/27 01:08:04;;;;;;;2.20;0.60;;;;;;;12.83;81.30;99658.59;116154;1208;22151;-60
2021/08/27 01:10:41;;;;;;;2.90;0.60;;;;;;;12.81;81.36;99657.07;116133;1201;22752;-60
2021/08/27 01:13:21;;;;;;;4.60;0.60;;;;;;;12.83;81.31;99662.30;116129;1201;22313;-60
2021/08/27 01:16:02;;;;;;;4.30;0.70;;;;;;;12.84;81.25;99665.27;116142;1201;22984;-60
2021/08/27 01:18:45;;;;;;;3.40;0.50;;;;;;;12.86;81.24;99664.98;116116;1201;22489;-60
2021/08/27 01:21:44;;;;;;;2.60;0.60;;;;;;;12.89;81.34;99666.40;116134;1201;22351;-60
2021/08/27 01:24:17;;;;;;;2.70;0.50;;;;;;;12.92;81.28;99671.23;116124;1201;22291;-60
2021/08/27 01:26:51;;;;;;;3.30;0.70;;;;;;;12.93;81.19;99674.55;116108;1201;22466;-60
2021/08/27 01:29:29;;;;;;;4.20;0.60;;;;;;;12.96;81.15;99673.77;116134;1201;22339;-60
2021/08/27 01:32:08;;;;;;;4.10;0.60;;;;;;;12.98;81.27;99675.63;116110;1202;22350;-60
2021/08/27 01:34:43;;;;;;;5.50;0.80;;;;;;;13.00;81.42;99676.18;116152;1201;22329;-60
2021/08/27 01:37:17;;;;;;;3.70;0.50;;;;;;;13.02;81.24;99674.54;116144;1201;23556;-61
2021/08/27 01:39:52;;;;;;;5.30;0.50;;;;;;;13.02;81.27;99671.14;116100;1201;22318;-60
2021/08/27 01:42:27;;;;;;;3.90;0.50;;;;;;;13.00;81.28;99669.20;116138;1201;22934;-60
2021/08/27 01:44:59;;;;;;;6.10;0.80;;;;;;;13.01;81.22;99668.64;116127;1201;22345;-60
2021/08/27 01:47:33;;;;;;;2.90;0.60;;;;;;;13.00;81.23;99669.30;116080;1201;22338;-60
2021/08/27 01:50:07;;;;;;;5.10;0.70;;;;;;;13.00;81.29;99667.92;116128;1201;22302;-60
2021/08/27 01:52:40;;;;;;;2.90;0.50;;;;;;;12.99;81.16;99670.23;116141;1201;22442;-60
2021/08/27 01:55:13;;;;;;;3.70;0.50;;;;;;;12.98;81.25;99671.55;116089;1201;22103;-60
2021/08/27 01:57:45;;;;;;;4.80;0.70;;;;;;;12.96;81.12;99672.11;116102;1202;22148;-60
2021/08/27 02:00:17;;;;;;;4.60;0.50;;;;;;;12.95;81.24;99671.59;116106;1201;22294;-60
2021/08/27 02:02:50;;;;;;;2.60;0.40;;;;;;;12.95;81.36;99667.67;116146;1201;22322;-60
2021/08/27 02:05:24;;;;;;;2.20;0.60;;;;;;;12.96;81.50;99668.34;116156;1201;22269;-60
2021/08/27 02:07:57;;;;;;;3.30;0.50;;;;;;;12.95;81.44;99658.86;116128;1201;22780;-60
2021/08/27 02:10:29;;;;;;;2.20;0.50;;;;;;;12.94;81.44;99656.92;116124;1201;22276;-60
2021/08/27 02:13:00;;;;;;;2.20;0.50;;;;;;;12.93;81.58;99654.63;116116;1201;22255;-60
2021/08/27 02:15:32;;;;;;;3.40;0.50;;;;;;;12.92;81.50;99652.80;116113;1201;22263;-60
2021/08/27 02:18:03;;;;;;;3.90;0.50;;;;;;;12.91;81.62;99651.67;116075;1208;22306;-60
2021/08/27 02:20:37;;;;;;;3.90;0.40;;;;;;;12.91;81.49;99652.66;116074;1201;22458;-60
2021/08/27 02:23:09;;;;;;;3.90;0.60;;;;;;;12.87;81.51;99649.84;116135;1201;23024;-60
2021/08/27 02:25:45;;;;;;;4.30;0.50;;;;;;;12.85;81.56;99648.00;116133;1201;22120;-60
2021/08/27 02:28:18;;;;;;;4.90;0.60;;;;;;;12.83;81.68;99648.81;116076;1201;22337;-60
2021/08/27 02:30:50;;;;;;;5.30;0.80;;;;;;;12.80;81.62;99651.27;116125;1201;22135;-60
2021/08/27 02:33:22;;;;;;;4.80;0.50;;;;;;;12.78;81.65;99652.73;116111;1201;22318;-60
2021/08/27 02:35:54;;;;;;;3.90;0.50;;;;;;;12.76;81.55;99651.06;116109;1201;22321;-60
2021/08/27 02:38:27;;;;;;;1.80;0.60;;;;;;;12.75;81.67;99647.03;116092;1201;22358;-60
2021/08/27 02:40:58;;;;;;;2.60;0.60;;;;;;;12.75;81.57;99646.83;116159;1195;22667;-60
2021/08/27 02:43:29;;;;;;;2.50;0.50;;;;;;;12.72;81.56;99646.63;116126;1201;22964;-60
2021/08/27 02:46:00;;;;;;;2.40;0.60;;;;;;;12.70;81.57;99641.63;116103;1201;22219;-60
2021/08/27 02:48:31;;;;;;;5.20;0.70;;;;;;;12.68;81.67;99643.46;116121;1201;22172;-60
2021/08/27 02:51:10;;;;;;;3.30;0.50;;;;;;;12.66;81.53;99641.63;116075;1201;22362;-60
2021/08/27 02:53:46;;;;;;;2.00;0.50;;;;;;;12.64;81.74;99643.52;116084;1201;23111;-59
2021/08/27 02:56:22;;;;;;;7.60;0.70;;;;;;;12.62;81.61;99642.80;116069;1201;22341;-60
2021/08/27 02:58:54;;;;;;;4.30;0.60;;;;;;;12.59;81.64;99640.30;116115;1201;22354;-60
2021/08/27 03:01:36;;;;;;;3.00;0.70;;;;;;;12.58;81.74;99642.73;116121;1201;22299;-60
2021/08/27 03:04:14;;;;;;;6.20;0.50;;;;;;;12.59;81.81;99640.70;116107;1201;22303;-60
2021/08/27 03:06:52;;;;;;;2.80;0.60;;;;;;;12.58;81.68;99646.81;116054;1201;22390;-60
2021/08/27 03:09:29;;;;;;;3.60;0.40;;;;;;;12.58;81.72;99652.36;116051;1201;22306;-60
2021/08/27 03:12:05;;;;;;;3.10;0.60;;;;;;;12.58;81.79;99655.47;116081;1201;22337;-60
2021/08/27 03:14:40;;;;;;;2.70;0.40;;;;;;;12.60;81.80;99658.67;116073;1201;22316;-60
2021/08/27 03:17:15;;;;;;;3.20;0.60;;;;;;;12.62;81.86;99663.21;116099;1201;23037;-59
2021/08/27 03:19:52;;;;;;;2.10;0.50;;;;;;;12.63;81.91;99667.13;116112;1201;22289;-60
2021/08/27 03:22:25;;;;;;;6.20;0.60;;;;;;;12.62;81.85;99670.95;116078;1201;23010;-60
2021/08/27 03:25:00;;;;;;;1.50;0.40;;;;;;;12.61;81.89;99672.02;115943;1195;104013;-77
2021/08/27 03:27:36;;;;;;;1.70;0.40;;;;;;;12.61;81.92;99672.84;116021;1201;22282;-77
2021/08/27 03:30:15;;;;;;;3.10;0.50;;;;;;;12.61;81.82;99669.52;115880;1204;22222;-76
2021/08/27 03:32:48;;;;;;;2.10;0.30;;;;;;;12.61;81.83;99664.84;115972;1201;22330;-77
2021/08/27 03:35:31;;;;;;;2.50;0.40;;;;;;;12.60;81.82;99669.47;116042;1202;22663;-77
2021/08/27 03:38:04;;;;;;;4.60;0.40;;;;;;;12.60;81.87;99666.97;115890;1203;22327;-76
2021/08/27 03:40:36;;;;;;;5.70;0.50;;;;;;;12.60;81.93;99664.14;116043;1202;22313;-80
2021/08/27 03:43:08;;;;;;;1.50;0.40;;;;;;;12.59;81.80;99666.83;115966;1201;22857;-78
2021/08/27 03:45:39;;;;;;;4.10;0.40;;;;;;;12.58;81.88;99670.14;115938;1203;22791;-78
2021/08/27 03:48:11;;;;;;;1.80;0.40;;;;;;;12.58;81.84;99674.61;115996;1202;22298;-79
2021/08/27 03:50:42;;;;;;;3.10;0.40;;;;;;;12.58;82.03;99679.19;115996;1202;22348;-79
2021/08/27 03:53:14;;;;;;;3.60;0.50;;;;;;;12.59;82.13;99678.38;116025;1202;22256;-78
2021/08/27 03:55:48;;;;;;;3.00;0.60;;;;;;;12.57;82.01;99674.45;115995;1202;23160;-79
2021/08/27 03:58:22;;;;;;;3.00;0.50;;;;;;;12.57;82.03;99675.28;116040;1202;23057;-79
2021/08/27 04:00:56;;;;;;;3.40;0.60;;;;;;;12.58;82.12;99673.44;116005;1202;22329;-79
2021/08/27 04:03:27;;;;;;;1.80;0.50;;;;;;;12.58;82.00;99670.95;116038;1202;22338;-78
2021/08/27 04:06:06;;;;;;;3.80;0.40;;;;;;;12.57;82.04;99674.55;115998;1202;22330;-78
2021/08/27 04:08:39;;;;;;;3.90;0.60;;;;;;;12.57;82.00;99674.76;116009;1203;22333;-79
2021/08/27 04:11:17;;;;;;;8.70;0.90;;;;;;;12.57;82.11;99677.00;116035;1203;22324;-78
2021/08/27 04:13:48;;;;;;;1.20;0.50;;;;;;;12.57;82.10;99674.35;115994;1203;22998;-78
2021/08/27 04:16:20;;;;;;;1.60;0.60;;;;;;;12.58;82.16;99673.39;116025;1201;22317;-78
2021/08/27 04:18:50;;;;;;;5.00;0.60;;;;;;;12.59;82.15;99676.30;115999;1201;22193;-79
2021/08/27 04:21:21;;;;;;;5.30;0.80;;;;;;;12.59;82.19;99675.23;115976;1202;22284;-79
2021/08/27 04:23:52;;;;;;;3.60;0.80;;;;;;;12.60;82.31;99675.37;116022;1202;22821;-78
2021/08/27 04:26:22;;;;;;;4.00;0.70;;;;;;;12.61;82.35;99676.05;115947;1202;22239;-79
2021/08/27 04:28:53;;;;;;;1.90;0.50;;;;;;;12.62;82.40;99681.34;116073;1201;22314;-79
2021/08/27 04:31:32;;;;;;;3.60;0.60;;;;;;;12.65;82.43;99686.39;116048;1201;22172;-78
2021/08/27 04:34:03;;;;;;;4.80;0.80;;;;;;;12.68;82.52;99682.36;116042;1203;22401;-78
2021/08/27 04:36:35;;;;;;;5.00;0.90;;;;;;;12.70;82.33;99685.17;116014;1202;23023;-77
2021/08/27 04:39:09;;;;;;;4.90;0.70;;;;;;;12.72;82.25;99689.60;115988;1202;22343;-77
2021/08/27 04:41:40;;;;;;;3.60;0.90;;;;;;;12.74;82.45;99695.20;115991;1202;22329;-79
2021/08/27 04:44:10;;;;;;;6.60;0.70;;;;;;;12.77;82.39;99698.02;116048;1202;22996;-79
2021/08/27 04:46:41;;;;;;;4.40;0.80;;;;;;;12.79;82.58;99699.75;116030;1202;22896;-78
2021/08/27 04:49:12;;;;;;;4.90;0.90;;;;;;;12.81;82.54;99703.77;115983;1202;23127;-79
2021/08/27 04:51:43;;;;;;;2.10;0.60;;;;;;;12.82;82.55;99703.83;116001;1209;22311;-79
2021/08/27 04:54:13;;;;;;;5.50;0.90;;;;;;;12.85;82.70;99702.25;115962;1202;22368;-81
2021/08/27 04:56:45;;;;;;;4.40;0.80;;;;;;;12.89;82.75;99704.19;116001;1202;22271;-79
2021/08/27 04:59:25;;;;;;;5.50;0.90;;;;;;;12.91;82.68;99703.73;115972;1202;22493;-78
2021/08/27 05:02:00;;;;;;;7.00;0.80;;;;;;;12.95;82.77;99712.35;115988;1204;22183;-80
2021/08/27 05:04:31;;;;;;;5.60;0.80;;;;;;;12.99;82.87;99712.31;115998;1202;22979;-78
2021/08/27 05:07:01;;;;;;;4.70;0.80;;;;;;;13.03;82.96;99713.02;116045;1202;22308;-78
2021/08/27 05:09:32;;;;;;;5.00;0.80;;;;;;;13.07;82.92;99713.87;115982;1202;22320;-80
2021/08/27 05:12:03;;;;;;;6.50;1.10;;;;;;;13.12;83.19;99715.14;115994;1204;22243;-79
2021/08/27 05:14:33;;;;;;;7.60;1.10;;;;;;;13.15;83.03;99712.39;116001;1202;22575;-78
2021/08/27 05:17:04;;;;;;;6.40;1.10;;;;;;;13.18;83.12;99712.43;116087;1201;22341;-80
2021/08/27 05:19:38;;;;;;;8.30;1.40;;;;;;;13.22;82.98;99708.20;116006;1203;22341;-81
2021/08/27 05:22:09;;;;;;;3.90;1.10;;;;;;;13.25;83.08;99709.42;115958;1201;22918;-78
2021/08/27 05:24:40;;;;;;;7.80;0.90;;;;;;;13.28;83.03;99708.36;115996;1203;22208;-78
2021/08/27 05:27:20;;;;;;;;;;;;;;;;;;;;;
2021/08/27 05:29:52;;;;;;;8.20;1.00;;;;;;;13.35;82.88;99713.86;115950;1203;22304;-79
2021/08/27 05:32:24;;;;;;;5.30;0.90;;;;;;;13.38;82.91;99712.69;116010;1202;23206;-78
2021/08/27 05:35:05;;;;;;;4.50;1.00;;;;;;;13.40;82.80;99710.04;116042;1204;22709;-78
2021/08/27 05:37:36;;;;;;;6.90;1.20;;;;;;;13.44;82.77;99712.58;115803;1202;22219;-78
2021/08/27 05:40:10;;;;;;;6.30;1.30;;;;;;;13.46;82.59;99713.55;116021;1202;22335;-78
2021/08/27 05:42:42;;;;;;;6.60;1.50;;;;;;;13.46;82.41;99714.98;116093;1202;22256;-79
2021/08/27 05:45:15;;;;;;;8.00;1.30;;;;;;;13.48;82.47;99716.24;116150;1208;22419;-79
2021/08/27 05:47:46;;;;;;;6.50;1.30;;;;;;;13.51;82.40;99719.09;116069;1203;22315;-81
2021/08/27 05:50:18;;;;;;;5.20;1.20;;;;;;;13.53;82.34;99720.20;116103;1203;22845;-81
2021/08/27 05:52:49;;;;;;;7.40;1.40;;;;;;;13.56;82.47;99722.96;116030;1202;22135;-79
2021/08/27 05:55:20;;;;;;;7.00;1.00;;;;;;;13.58;82.45;99723.27;115978;1203;22949;-79
2021/08/27 05:57:52;;;;;;;7.20;1.40;;;;;;;13.61;82.39;99723.35;116002;1203;22343;-81
2021/08/27 06:00:22;;;;;;;3.70;1.10;;;;;;;13.64;82.44;99729.08;115994;1202;22420;-79
2021/08/27 06:02:54;;;;;;;3.40;1.20;;;;;;;13.68;82.38;99723.81;115992;1202;22283;-79
2021/08/27 06:05:24;;;;;;;7.10;1.50;;;;;;;13.71;82.25;99728.09;116037;1201;22460;-79
2021/08/27 06:08:01;;;;;;;5.70;1.40;;;;;;;13.72;82.10;99725.48;116044;1203;22371;-78
2021/08/27 06:10:32;;;;;;;6.30;1.30;;;;;;;13.75;82.09;99728.19;116008;1203;22302;-78
2021/08/27 06:13:04;;;;;;;7.60;1.40;;;;;;;13.77;81.90;99723.73;116057;1201;22338;-78
2021/08/27 06:15:42;;;;;;;7.00;1.40;;;;;;;13.79;81.70;99724.40;115976;1202;22345;-79
2021/08/27 06:18:14;;;;;;;9.90;1.30;;;;;;;13.81;81.82;99724.86;116014;1204;22325;-80
2021/08/27 06:20:45;;;;;;;4.90;1.50;;;;;;;13.84;81.91;99724.70;115971;1202;22292;-78
2021/08/27 06:23:16;;;;;;;5.70;1.20;;;;;;;13.87;81.87;99730.72;116031;1203;22990;-79
2021/08/27 06:25:48;;;;;;;9.00;1.70;;;;;;;13.90;81.85;99733.15;115973;1202;22283;-78
2021/08/27 06:28:23;;;;;;;12.00;1.50;;;;;;;13.94;81.74;99730.79;115987;1204;22139;-79
2021/08/27 06:30:54;;;;;;;6.50;1.50;;;;;;;14.00;81.89;99734.30;116018;1196;22747;-78
2021/08/27 06:33:25;;;;;;;4.30;1.30;;;;;;;14.07;81.93;99736.92;116016;1201;22320;-79
2021/08/27 06:35:56;;;;;;;5.10;1.30;;;;;;;14.16;81.89;99736.14;115727;1204;22981;-79
2021/08/27 06:38:27;;;;;;;4.10;1.10;;;;;;;14.22;81.87;99734.68;116006;1202;22354;-79
2021/08/27 06:41:00;;;;;;;5.90;1.50;;;;;;;14.29;81.76;99737.94;116021;1209;22201;-80
2021/08/27 06:43:33;;;;;;;5.90;1.30;;;;;;;14.35;81.45;99737.63;116020;1194;22081;-80
2021/08/27 06:46:07;;;;;;;5.50;1.50;;;;;;;14.39;81.17;99742.75;116017;1201;22468;-79
2021/08/27 06:48:43;;;;;;;10.00;1.50;;;;;;;14.43;80.83;99744.33;115939;1204;22894;-79
2021/08/27 06:51:14;;;;;;;4.70;1.40;;;;;;;14.48;80.92;99745.83;116000;1204;22891;-78
2021/08/27 06:53:46;;;;;;;6.20;1.50;;;;;;;14.53;80.95;99747.85;116058;1204;22303;-79
2021/08/27 06:56:17;;;;;;;8.80;1.30;;;;;;;14.58;80.97;99744.66;115966;1201;23071;-79
2021/08/27 06:58:48;;;;;;;5.50;1.30;;;;;;;14.65;80.96;99744.57;116028;1202;22348;-81
2021/08/27 07:01:19;;;;;;;4.80;1.20;;;;;;;14.72;80.83;99745.44;115953;1204;22985;-78
2021/08/27 07:03:54;;;;;;;4.90;1.10;;;;;;;14.78;80.39;99746.55;116012;1205;22332;-80
2021/08/27 07:06:25;;;;;;;5.30;1.20;;;;;;;14.83;80.21;99749.27;116003;1203;22332;-79
2021/08/27 07:08:55;;;;;;;7.70;1.30;;;;;;;14.88;80.04;99748.05;116001;1202;22188;-80
2021/08/27 07:11:26;;;;;;;5.40;1.30;;;;;;;14.88;79.42;99745.09;115986;1202;22327;-80
2021/08/27 07:13:57;;;;;;;5.00;1.00;;;;;;;14.90;79.69;99747.64;116039;1204;22518;-80
2021/08/27 07:16:28;;;;;;;4.60;1.00;;;;;;;14.93;79.26;99747.52;116001;1204;22307;-79
2021/08/27 07:18:59;;;;;;;3.10;0.70;;;;;;;14.95;79.00;99749.91;115983;1204;22167;-79
2021/08/27 07:21:34;;;;;;;4.60;0.70;;;;;;;14.97;79.14;99752.45;115989;1196;23022;-81
2021/08/27 07:24:06;;;;;;;5.20;0.80;;;;;;;15.06;79.46;99754.73;115997;1200;23008;-79
2021/08/27 07:26:37;;;;;;;7.30;0.80;;;;;;;15.09;78.85;99752.52;116024;1202;22760;-79
2021/08/27 07:29:11;;;;;;;2.70;0.70;;;;;;;15.09;78.51;99751.65;116039;1202;23078;-80
2021/08/27 07:31:44;;;;;;;4.70;0.90;;;;;;;15.11;78.39;99753.17;116013;1201;22338;-79
2021/08/27 07:34:18;;;;;;;5.30;0.70;;;;;;;15.13;78.47;99756.32;116022;1200;22412;-79
2021/08/27 07:36:49;;;;;;;2.70;0.60;;;;;;;15.18;78.33;99761.66;115996;1201;22779;-79
2021/08/27 07:39:21;;;;;;;2.80;0.70;;;;;;;15.21;78.20;99761.68;115941;1201;22334;-79
2021/08/27 07:41:53;;;;;;;1.90;0.60;;;;;;;15.29;78.18;99762.96;116016;1204;22393;-79
2021/08/27 07:44:24;;;;;;;4.50;0.60;;;;;;;15.33;77.80;99765.27;116018;1201;22382;-79
2021/08/27 07:46:55;;;;;;;2.10;0.60;;;;;;;15.35;77.69;99766.44;116015;1201;22988;-79
2021/08/27 07:49:26;;;;;;;4.80;0.50;;;;;;;15.39;77.43;99766.97;116014;1204;22336;-79
2021/08/27 07:51:57;;;;;;;2.20;0.50;;;;;;;15.44;77.47;99769.04;116001;1202;22765;-79
2021/08/27 07:54:28;;;;;;;1.50;0.20;;;;;;;15.47;76.91;99765.51;116011;1200;22251;-80
2021/08/27 07:56:59;;;;;;;2.10;0.30;;;;;;;15.47;76.50;99766.73;115996;1201;22383;-79
2021/08/27 07:59:30;;;;;;;3.90;0.40;;;;;;;15.48;76.82;99765.95;116014;1201;22334;-81
2021/08/27 08:02:01;;;;;;;4.00;0.30;;;;;;;15.54;76.79;99766.36;116044;1201;22325;-79
2021/08/27 08:04:33;;;;;;;2.90;0.30;;;;;;;15.57;76.00;99765.92;116050;1200;22250;-79
2021/08/27 08:07:05;;;;;;;2.10;0.40;;;;;;;15.60;75.71;99761.71;116079;1202;23202;-80
2021/08/27 08:09:38;;;;;;;2.90;0.30;;;;;;;15.61;75.52;99761.85;115996;1201;23333;-80
2021/08/27 08:12:14;;;;;;;4.80;0.50;;;;;;;15.63;75.70;99763.00;116035;1201;22322;-79
2021/08/27 08:14:45;;;;;;;2.20;0.30;;;;;;;15.67;75.42;99765.79;116013;1201;22275;-79
2021/08/27 08:17:16;;;;;;;5.20;0.40;;;;;;;15.69;75.04;99763.36;115998;1200;22341;-79
2021/08/27 08:19:47;;;;;;;2.40;0.20;;;;;;;15.74;75.30;99762.25;116025;1202;22341;-79
2021/08/27 08:22:21;;;;;;;4.20;0.40;;;;;;;15.79;74.67;99762.85;116021;1201;22395;-79
2021/08/27 08:24:54;;;;;;;2.00;0.40;;;;;;;15.83;74.68;99760.71;116028;1201;22361;-79
2021/08/27 08:27:26;;;;;;;3.40;0.40;;;;;;;15.91;74.53;99760.60;116013;1202;23000;-79
2021/08/27 08:29:59;;;;;;;1.30;0.30;;;;;;;15.96;74.35;99762.92;115996;1206;22990;-81
2021/08/27 08:32:32;;;;;;;3.20;0.40;;;;;;;16.04;74.37;99763.67;116062;1201;22324;-79
2021/08/27 08:35:06;;;;;;;2.30;0.50;;;;;;;16.09;73.64;99765.83;115962;1205;23100;-79
2021/08/27 08:37:42;;;;;;;2.00;0.30;;;;;;;16.11;73.23;99767.34;116072;1202;22296;-79
2021/08/27 08:40:15;;;;;;;2.70;0.30;;;;;;;16.12;73.39;99765.42;116030;1201;22334;-80
2021/08/27 08:42:48;;;;;;;1.40;0.30;;;;;;;16.15;72.84;99768.63;115998;1202;22359;-79
2021/08/27 08:45:19;;;;;;;1.20;0.30;;;;;;;16.18;72.83;99768.54;115988;1202;22386;-79
2021/08/27 08:47:52;;;;;;;4.40;0.40;;;;;;;16.25;73.44;99768.40;116008;1201;22351;-79
2021/08/27 08:50:28;;;;;;;1.50;0.30;;;;;;;16.36;73.51;99771.04;116038;1201;22350;-79
2021/08/27 08:53:02;;;;;;;1.40;0.30;;;;;;;16.48;73.60;99772.35;116098;1206;22314;-79
2021/08/27 08:55:38;;;;;;;1.10;0.30;;;;;;;16.61;73.02;99773.54;116045;1195;22338;-79
2021/08/27 08:58:11;;;;;;;2.90;0.40;;;;;;;16.67;72.17;99772.02;116021;1201;22751;-79
2021/08/27 09:00:42;;;;;;;1.70;0.40;;;;;;;16.73;72.41;99775.06;116026;1202;22586;-80
2021/08/27 09:03:14;;;;;;;1.90;0.40;;;;;;;16.82;72.21;99769.56;116065;1208;22327;-79
2021/08/27 09:05:46;;;;;;;1.90;0.30;;;;;;;16.86;71.95;99771.08;116049;1209;22352;-79
2021/08/27 09:08:47;;;;;;;1.20;0.40;;;;;;;16.93;71.61;99770.02;115980;1204;22344;-79
2021/08/27 09:11:25;;;;;;;3.70;0.30;;;;;;;16.98;71.37;99774.51;116001;1201;22725;-79
2021/08/27 09:14:02;;;;;;;3.00;0.40;;;;;;;17.07;71.45;99772.84;116031;1209;22446;-78
2021/08/27 09:16:40;;;;;;;2.60;0.30;;;;;;;17.17;71.10;99772.69;116046;1202;22350;-79
2021/08/27 09:19:13;;;;;;;3.40;0.30;;;;;;;17.25;70.90;99774.52;116003;1201;23074;-79
2021/08/27 09:21:47;;;;;;;1.30;0.30;;;;;;;17.32;70.56;99774.47;116051;1201;22127;-79
2021/08/27 09:24:33;;;;;;;2.10;0.30;;;;;;;17.39;70.47;99774.30;116035;1202;22472;-79
2021/08/27 09:27:07;;;;;;;2.50;0.40;;;;;;;17.44;69.80;99780.96;116002;1201;23422;-78
2021/08/27 09:29:41;;;;;;;3.00;0.30;;;;;;;17.42;69.50;99776.91;115997;1201;22267;-79
2021/08/27 09:32:25;;;;;;;1.90;0.30;;;;;;;17.40;69.30;99781.23;116032;1201;22353;-79
2021/08/27 09:35:08;;;;;;;1.10;0.30;;;;;;;17.38;68.99;99787.55;116066;1201;22151;-79
2021/08/27 09:37:41;;;;;;;1.50;0.30;;;;;;;17.35;69.08;99782.73;115974;1201;22309;-79
2021/08/27 09:40:14;;;;;;;5.80;0.40;;;;;;;17.31;68.85;99784.95;116001;1203;22376;-78
2021/08/27 09:42:49;;;;;;;1.30;0.30;;;;;;;17.27;68.76;99786.84;115998;1202;22211;-80
2021/08/27 09:45:32;;;;;;;4.20;0.50;;;;;;;17.24;68.85;99790.12;115940;1201;22395;-79
2021/08/27 09:48:04;;;;;;;3.90;0.60;;;;;;;17.24;68.93;99783.05;115975;1202;22179;-79
2021/08/27 09:50:38;;;;;;;3.40;0.30;;;;;;;17.25;68.72;99784.77;116033;1209;22335;-79
2021/08/27 09:53:12;;;;;;;2.10;0.40;;;;;;;17.27;68.66;99785.66;116044;1201;22312;-79
2021/08/27 09:55:56;;;;;;;3.60;0.40;;;;;;;17.29;68.68;99784.86;115974;1202;23056;-79
2021/08/27 09:58:29;;;;;;;2.30;0.50;;;;;;;17.32;68.47;99784.56;115859;1203;22337;-79
2021/08/27 10:01:06;;;;;;;1.60;0.50;;;;;;;17.35;68.43;99784.83;116007;1201;22166;-79
2021/08/27 10:03:38;;;;;;;2.40;0.40;;;;;;;17.39;68.45;99782.20;115986;1206;23578;-79
2021/08/27 10:06:33;;;;;;;1.40;0.40;;;;;;;17.46;68.11;99783.77;116024;1201;23113;-79
2021/08/27 10:09:05;;;;;;;2.60;0.30;;;;;;;17.55;68.02;99779.64;116009;1202;22298;-79
2021/08/27 10:11:37;;;;;;;1.30;0.30;;;;;;;17.67;68.05;99780.58;115975;1202;22757;-79
2021/08/27 10:14:09;;;;;;;1.30;0.30;;;;;;;17.81;67.98;99777.56;116023;1201;22432;-79
2021/08/27 10:16:41;;;;;;;1.20;0.30;;;;;;;17.95;67.25;99776.99;115984;1207;22869;-79
2021/08/27 10:19:14;;;;;;;1.00;0.30;;;;;;;18.04;66.50;99774.16;115960;1202;22326;-79
2021/08/27 10:21:50;;;;;;;1.90;0.30;;;;;;;18.10;66.43;99772.97;115967;1201;22989;-79
2021/08/27 10:24:23;;;;;;;150.90;105.80;;;;;;;18.14;66.04;99770.55;115975;1201;22395;-79
2021/08/27 10:26:54;;;;;;;81.50;47.20;;;;;;;18.13;65.66;99770.05;116008;1201;22318;-78
2021/08/27 10:29:26;;;;;;;10.30;2.60;;;;;;;18.08;65.20;99766.02;116038;1206;22327;-79
2021/08/27 10:31:58;;;;;;;4.40;0.60;;;;;;;18.06;65.20;99769.56;116028;1201;22344;-79
2021/08/27 10:34:43;;;;;;;1.90;0.50;;;;;;;18.13;65.21;99766.13;115954;1209;22332;-79
2021/08/27 10:37:44;;;;;;;1.10;0.30;;;;;;;18.26;64.18;99764.85;115984;1201;22961;-80
2021/08/27 10:40:39;;;;;;;1.00;0.20;;;;;;;18.30;63.58;99757.31;115990;1201;22840;-79
2021/08/27 10:43:09;;;;;;;2.60;0.40;;;;;;;18.31;63.00;99759.71;116018;1206;22375;-79
2021/08/27 10:45:58;;;;;;;1.20;0.10;;;;;;;18.34;63.43;99758.06;115988;1205;22377;-79
2021/08/27 10:48:49;;;;;;;0.70;0.10;;;;;;;18.45;63.15;99756.94;116016;1202;22367;-78
2021/08/27 10:51:36;;;;;;;2.90;0.60;;;;;;;18.53;62.42;99761.25;115980;1202;22356;-79
2021/08/27 10:54:11;;;;;;;1.90;0.30;;;;;;;18.48;62.06;99757.45;115932;1201;22389;-78
2021/08/27 10:56:49;;;;;;;5.00;0.40;;;;;;;18.47;62.22;99755.33;115991;1201;22349;-79
2021/08/27 10:59:21;;;;;;;4.40;0.40;;;;;;;18.44;61.86;99755.27;116001;1201;22292;-79
2021/08/27 11:02:04;;;;;;;4.60;0.80;;;;;;;18.41;62.38;99757.41;116016;1201;22960;-79
2021/08/27 11:04:43;;;;;;;2.50;0.30;;;;;;;18.40;62.02;99759.69;115987;1201;22331;-78
2021/08/27 11:07:19;;;;;;;2.00;0.30;;;;;;;18.33;61.83;99753.98;116011;1202;22312;-79
2021/08/27 11:10:07;;;;;;;1.30;0.30;;;;;;;18.23;61.38;99755.88;116035;1202;22563;-78
2021/08/27 11:12:38;;;;;;;3.20;0.60;;;;;;;18.13;61.76;99759.15;116022;1201;22343;-79
2021/08/27 11:15:26;;;;;;;1.40;0.30;;;;;;;18.05;61.34;99753.61;116023;1201;22276;-79
2021/08/27 11:18:22;;;;;;;1.70;0.40;;;;;;;17.92;61.93;99758.13;115994;1203;22308;-78
2021/08/27 11:20:54;;;;;;;3.90;0.80;;;;;;;17.83;62.39;99755.86;115967;1201;22861;-79
2021/08/27 11:23:25;;;;;;;4.60;0.80;;;;;;;17.77;62.73;99754.02;116036;1202;22284;-78
2021/08/27 11:26:06;;;;;;;2.10;0.50;;;;;;;17.77;63.18;99755.14;116044;1206;24471;-79
2021/08/27 11:28:37;;;;;;;2.80;0.50;;;;;;;17.79;62.57;99759.27;116051;1201;22331;-78
2021/08/27 11:31:11;;;;;;;2.40;0.30;;;;;;;17.73;61.99;99759.38;116048;1201;22304;-79
2021/08/27 11:34:05;;;;;;;;;;;;;;;;;;;;;
2021/08/27 11:36:36;;;;;;;1.60;0.20;;;;;;;17.75;63.25;99763.50;116028;1201;22317;-78
2021/08/27 11:39:09;;;;;;;0.90;0.10;;;;;;;17.86;63.36;99762.23;115985;1206;22283;-80
2021/08/27 11:41:41;;;;;;;0.70;0.20;;;;;;;17.95;62.86;99761.86;115963;1201;22324;-79
2021/08/27 11:44:15;;;;;;;3.10;0.20;;;;;;;17.99;62.25;99759.99;116025;1201;22369;-79
2021/08/27 11:46:49;;;;;;;1.90;0.20;;;;;;;18.04;62.14;99754.61;115972;1201;22286;-79
2021/08/27 11:49:45;;;;;;;1.70;0.20;;;;;;;18.08;62.06;99757.23;115978;1202;22362;-79
2021/08/27 11:52:25;;;;;;;0.70;0.10;;;;;;;18.08;62.41;99755.97;116012;1201;22315;-79
2021/08/27 11:55:04;;;;;;;2.70;0.20;;;;;;;18.10;61.84;99756.74;116002;1201;22238;-79
2021/08/27 11:57:36;;;;;;;1.50;0.30;;;;;;;18.13;62.09;99754.33;115980;1202;22336;-79
2021/08/27 12:00:15;;;;;;;4.50;0.50;;;;;;;18.13;61.52;99757.81;115996;1200;23066;-79